Time;durP1;ratioP1;P1;durP2;ratioP2;P2;SDS_P1;SDS_P2;PMS_P1;PMS_P2;Temp;Humidity;BMP_temperature;BMP_pressure;BME280_temperature;BME280_humidity;BME280_pressure;Samples;Min_cycle;Max_cycle;Signal;HPM_P1;HPM_P2
2024/03/05 00:01:37;;;;;;;2.37;2.17;;;;;;;9.34;61.24;99168.28;4481170;31;33234;-84
2024/03/05 00:04:05;;;;;;;3.92;1.77;;;;;;;9.37;61.22;99165.50;4479001;31;33324;-83
2024/03/05 00:06:33;;;;;;;5.80;3.60;;;;;;;9.33;60.93;99158.69;4478880;31;34045;-84
2024/03/05 00:09:00;;;;;;;1.20;1.10;;;;;;;9.09;61.25;99164.22;4490080;31;33538;-83
2024/03/05 00:11:28;;;;;;;4.28;2.12;;;;;;;9.00;61.59;99166.44;4491337;31;33006;-83
2024/03/05 00:13:57;;;;;;;4.03;3.62;;;;;;;9.02;61.59;99175.09;4490922;31;34444;-83
2024/03/05 00:16:27;;;;;;;16.00;4.53;;;;;;;9.02;61.68;99168.06;4469345;31;32845;-83
2024/03/05 00:18:59;;;;;;;1.75;1.65;;;;;;;9.16;61.06;99172.66;4480448;31;32447;-84
2024/03/05 00:21:27;;;;;;;5.95;2.67;;;;;;;9.19;61.24;99175.16;4466976;31;32923;-83
2024/03/05 00:23:54;;;;;;;3.58;2.95;;;;;;;8.98;61.70;99183.16;4471357;31;33150;-82
2024/03/05 00:26:25;;;;;;;2.05;1.95;;;;;;;8.94;62.14;99176.31;4493702;31;34596;-82
2024/03/05 00:28:55;;;;;;;4.82;2.40;;;;;;;8.98;62.14;99191.06;4478054;31;34095;-82
2024/03/05 00:31:24;;;;;;;3.33;2.80;;;;;;;8.96;62.06;99186.78;4478419;31;33863;-82
2024/03/05 00:33:52;;;;;;;1.45;1.42;;;;;;;8.92;61.98;99182.56;4488247;31;34660;-82
2024/03/05 00:36:20;;;;;;;0.50;0.50;;;;;;;8.97;61.79;99186.72;4468006;31;32981;-82
2024/03/05 00:38:48;;;;;;;1.60;1.48;;;;;;;8.91;62.03;99186.97;4476711;31;33474;-82
2024/03/05 00:41:18;;;;;;;9.15;5.20;;;;;;;9.02;61.64;99183.00;4476451;31;33739;-82
2024/03/05 00:43:45;;;;;;;1.55;1.17;;;;;;;8.83;62.41;99191.78;4493232;31;34149;-82
2024/03/05 00:46:14;;;;;;;0.50;0.50;;;;;;;8.95;61.50;99192.97;4491595;31;33019;-82
2024/03/05 00:48:42;;;;;;;2.22;1.85;;;;;;;8.85;62.21;99187.28;4478462;31;33187;-82
2024/03/05 00:51:10;;;;;;;1.83;1.17;;;;;;;8.87;61.92;99181.94;4492491;31;34124;-82
2024/03/05 00:53:38;;;;;;;2.53;2.33;;;;;;;8.76;62.54;99186.84;4478208;31;33816;-82
2024/03/05 00:56:06;;;;;;;3.00;1.65;;;;;;;8.67;62.40;99188.13;4492177;31;33664;-82
2024/03/05 00:58:33;;;;;;;2.12;2.00;;;;;;;8.77;62.21;99178.87;4491519;31;32797;-82
2024/03/05 01:01:03;;;;;;;0.88;0.88;;;;;;;8.81;62.00;99180.44;4479725;31;32705;-82
2024/03/05 01:03:32;;;;;;;8.20;3.22;;;;;;;8.70;62.66;99188.00;4488141;31;33201;-81
2024/03/05 01:05:59;;;;;;;2.22;2.10;;;;;;;8.77;62.32;99189.41;4492484;31;32938;-81
2024/03/05 01:08:28;;;;;;;3.60;3.30;;;;;;;8.94;61.71;99178.09;4478990;31;32949;-81
2024/03/05 01:10:56;;;;;;;4.75;1.23;;;;;;;8.81;62.07;99180.44;4476642;31;33350;-81
2024/03/05 01:13:23;;;;;;;3.87;2.60;;;;;;;8.82;62.58;99184.78;4492908;31;34447;-81
2024/03/05 01:15:51;;;;;;;2.67;1.42;;;;;;;8.85;62.44;99187.28;4477025;31;33760;-81
2024/03/05 01:18:20;;;;;;;1.48;1.37;;;;;;;9.25;60.88;99180.13;4494473;31;34674;-81
2024/03/05 01:20:48;;;;;;;2.30;2.05;;;;;;;9.19;60.21;99185.69;4480003;31;33096;-81
2024/03/05 01:23:17;;;;;;;1.23;1.10;;;;;;;8.74;62.09;99186.09;4482021;31;33132;-80
2024/03/05 01:25:44;;;;;;;4.93;3.03;;;;;;;8.84;62.19;99184.72;4478704;31;34211;-80
2024/03/05 01:28:14;;;;;;;12.07;3.92;;;;;;;8.86;62.11;99188.97;4491524;31;34628;-80
2024/03/05 01:30:43;;;;;;;3.60;1.35;;;;;;;9.00;62.07;99184.84;4480472;31;32855;-80
2024/03/05 01:33:19;;;;;;;0.80;0.80;;;;;;;8.72;62.22;99189.62;4490344;31;34263;-80
2024/03/05 01:35:48;;;;;;;2.90;2.70;;;;;;;8.72;62.86;99192.25;4478885;31;33578;-80
2024/03/05 01:38:16;;;;;;;1.52;1.42;;;;;;;8.77;62.79;99186.78;4492572;31;34579;-80
2024/03/05 01:40:44;;;;;;;2.60;2.37;;;;;;;8.94;62.31;99197.38;4484021;31;31528;-80
2024/03/05 01:43:12;;;;;;;1.48;1.37;;;;;;;8.95;61.82;99191.19;4479211;31;33829;-80
2024/03/05 01:45:42;;;;;;;1.87;1.75;;;;;;;8.82;62.56;99186.56;4488759;31;33736;-80
2024/03/05 01:48:11;;;;;;;0.65;0.65;;;;;;;8.75;62.59;99191.25;4467091;31;30956;-80
2024/03/05 01:50:40;;;;;;;1.33;1.30;;;;;;;8.90;62.14;99190.56;4490897;31;32337;-80
2024/03/05 01:53:10;;;;;;;2.10;1.95;;;;;;;8.75;62.81;99193.91;4477668;31;33081;-81
2024/03/05 01:55:39;;;;;;;2.05;1.62;;;;;;;8.91;62.27;99194.88;4475471;31;34024;-81
2024/03/05 01:58:09;;;;;;;0.90;0.90;;;;;;;8.88;62.28;99192.41;4491412;31;34139;-81
2024/03/05 02:00:36;;;;;;;1.90;1.05;;;;;;;8.83;62.13;99197.03;4489932;31;34279;-81
2024/03/05 02:03:05;;;;;;;2.10;0.98;;;;;;;8.76;62.68;99187.69;4489689;31;33460;-81
2024/03/05 02:05:33;;;;;;;2.60;1.83;;;;;;;8.68;62.55;99181.94;4478986;31;31999;-82
2024/03/05 02:08:02;;;;;;;4.70;2.47;;;;;;;8.63;62.65;99184.78;4491370;31;34086;-83
2024/03/05 02:10:31;;;;;;;2.53;1.77;;;;;;;8.54;62.98;99186.97;4476453;31;33672;-82
2024/03/05 02:12:58;;;;;;;2.42;2.33;;;;;;;8.60;62.95;99197.25;4491273;31;33736;-81
2024/03/05 02:15:26;;;;;;;1.58;1.48;;;;;;;8.48;63.23;99187.25;4477290;31;33959;-80
2024/03/05 02:17:54;;;;;;;1.35;1.25;;;;;;;8.52;62.61;99188.81;4465648;31;33980;-82
2024/03/05 02:20:22;;;;;;;7.43;2.58;;;;;;;8.58;62.28;99194.66;4463501;31;34003;-82
2024/03/05 02:22:50;;;;;;;1.00;0.90;;;;;;;8.63;62.41;99186.56;4490044;31;33533;-82
2024/03/05 02:25:20;;;;;;;0.93;0.93;;;;;;;8.72;62.04;99191.41;4477715;31;33613;-82
2024/03/05 02:27:49;;;;;;;1.98;1.80;;;;;;;8.81;61.93;99198.03;4463365;31;33612;-81
2024/03/05 02:30:17;;;;;;;1.60;1.50;;;;;;;8.81;61.96;99195.38;4479693;31;33518;-81
2024/03/05 02:32:46;;;;;;;0.45;0.45;;;;;;;8.72;61.84;99202.78;4489446;31;34778;-81
2024/03/05 02:35:13;;;;;;;2.30;2.03;;;;;;;8.74;61.89;99200.09;4480233;31;33565;-81
2024/03/05 02:37:42;;;;;;;2.00;1.80;;;;;;;8.77;61.89;99205.19;4491806;31;33814;-81
2024/03/05 02:40:13;;;;;;;0.10;0.10;;;;;;;8.69;62.12;99199.47;4477469;31;32338;-82
2024/03/05 02:42:42;;;;;;;0.52;0.52;;;;;;;8.81;61.78;99203.28;4477221;31;32593;-82
2024/03/05 02:45:13;;;;;;;0.10;0.05;;;;;;;8.87;61.60;99198.59;4476280;31;34079;-82
2024/03/05 02:47:41;;;;;;;1.98;1.87;;;;;;;8.84;61.63;99201.37;4477285;31;33505;-82
2024/03/05 02:50:10;;;;;;;1.75;0.75;;;;;;;8.90;61.48;99201.09;4478481;31;33517;-81
2024/03/05 02:52:39;;;;;;;2.30;1.20;;;;;;;8.78;62.01;99201.63;4476851;31;33423;-80
2024/03/05 02:55:10;;;;;;;2.08;1.83;;;;;;;8.82;62.14;99211.09;4476666;31;33713;-81
2024/03/05 02:57:40;;;;;;;1.58;1.48;;;;;;;8.81;62.27;99201.50;4487088;31;33815;-80
2024/03/05 03:00:10;;;;;;;1.08;0.98;;;;;;;8.75;62.17;99196.53;4478966;31;32485;-80
2024/03/05 03:02:38;;;;;;;1.87;0.60;;;;;;;8.77;62.54;99202.56;4491056;31;34520;-81
2024/03/05 03:05:06;;;;;;;4.25;1.75;;;;;;;8.78;62.49;99201.63;4491584;31;33564;-80
2024/03/05 03:07:35;;;;;;;0.57;0.57;;;;;;;8.72;62.89;99201.94;4493368;31;32496;-81
2024/03/05 03:10:05;;;;;;;7.57;0.80;;;;;;;8.84;62.90;99211.91;4491138;31;34400;-83
2024/03/05 03:12:32;;;;;;;0.45;0.45;;;;;;;9.04;61.84;99212.75;4466903;31;33949;-82
2024/03/05 03:15:00;;;;;;;1.08;1.08;;;;;;;9.00;62.23;99211.19;4492281;31;33721;-82
2024/03/05 03:17:28;;;;;;;0.25;0.25;;;;;;;8.93;62.36;99213.28;4492263;31;34173;-80
2024/03/05 03:19:59;;;;;;;3.30;1.47;;;;;;;8.89;62.55;99215.19;4481174;31;33413;-80
2024/03/05 03:22:28;;;;;;;0.73;0.73;;;;;;;8.91;63.23;99215.09;4478480;31;32750;-80
2024/03/05 03:24:58;;;;;;;1.30;1.20;;;;;;;8.85;63.58;99210.97;4492276;31;34011;-83
2024/03/05 03:27:25;;;;;;;0.20;0.20;;;;;;;9.05;62.84;99214.47;4479197;31;33014;-82
2024/03/05 03:29:53;;;;;;;1.35;0.45;;;;;;;9.02;62.71;99209.31;4475562;31;33101;-82
2024/03/05 03:32:21;;;;;;;1.12;1.12;;;;;;;8.95;62.93;99214.88;4477129;31;33812;-82
2024/03/05 03:34:48;;;;;;;0.52;0.52;;;;;;;9.01;63.17;99221.63;4476614;31;33301;-81
2024/03/05 03:37:16;;;;;;;11.98;1.87;;;;;;;9.20;61.92;99229.53;4493247;31;33837;-81
2024/03/05 03:39:46;;;;;;;3.80;1.33;;;;;;;9.41;61.98;99223.25;4478802;31;34267;-81
2024/03/05 03:42:14;;;;;;;0.60;0.60;;;;;;;9.16;62.46;99235.88;4478725;31;33967;-80
2024/03/05 03:44:42;;;;;;;1.80;1.58;;;;;;;9.11;62.74;99232.59;4466229;31;34795;-80
2024/03/05 03:47:10;;;;;;;1.23;1.20;;;;;;;9.01;62.88;99239.22;4495545;31;34627;-80
2024/03/05 03:49:37;;;;;;;0.93;0.88;;;;;;;8.89;63.84;99236.25;4479420;31;33141;-80
2024/03/05 03:52:05;;;;;;;1.00;0.57;;;;;;;8.93;63.92;99232.56;4471161;31;33044;-81
2024/03/05 03:54:34;;;;;;;1.87;1.10;;;;;;;9.12;63.58;99236.97;4467308;31;32889;-81
2024/03/05 03:57:02;;;;;;;2.85;2.17;;;;;;;9.10;63.70;99231.75;4485660;31;33735;-82
2024/03/05 03:59:30;;;;;;;0.68;0.68;;;;;;;9.19;63.57;99233.09;4472410;31;33771;-80
2024/03/05 04:01:57;;;;;;;1.05;1.05;;;;;;;9.31;63.02;99237.81;4480883;31;34192;-81
2024/03/05 04:04:25;;;;;;;1.95;1.83;;;;;;;9.13;63.39;99228.12;4473295;31;33916;-81
2024/03/05 04:06:53;;;;;;;1.55;1.15;;;;;;;9.38;62.62;99231.31;4485514;31;34077;-81
2024/03/05 04:09:21;;;;;;;1.00;1.00;;;;;;;9.26;63.41;99224.00;4473371;31;32988;-81
2024/03/05 04:11:49;;;;;;;1.23;1.23;;;;;;;9.27;63.53;99230.97;4500842;31;33547;-81
2024/03/05 04:14:16;;;;;;;3.65;1.85;;;;;;;9.17;63.96;99234.97;4473223;31;34653;-82
2024/03/05 04:16:44;;;;;;;0.62;0.55;;;;;;;9.26;64.02;99238.94;4484458;31;33037;-82
2024/03/05 04:19:12;;;;;;;0.40;0.40;;;;;;;9.40;63.27;99242.62;4500457;31;33213;-82
2024/03/05 04:21:42;;;;;;;0.68;0.68;;;;;;;9.44;63.30;99241.53;4473380;31;34172;-82
2024/03/05 04:24:13;;;;;;;1.83;1.73;;;;;;;9.39;63.37;99235.62;4473203;31;33564;-82
2024/03/05 04:26:42;;;;;;;3.58;1.45;;;;;;;9.38;63.45;99235.72;4472857;31;33274;-82
2024/03/05 04:29:16;;;;;;;0.55;0.55;;;;;;;9.85;61.54;99238.69;4473129;31;33152;-82
2024/03/05 04:31:54;;;;;;;0.80;0.47;;;;;;;9.73;61.55;99239.28;4486194;31;34604;-82
2024/03/05 04:34:23;;;;;;;0.50;0.50;;;;;;;9.44;62.78;99232.78;4474336;31;33618;-82
2024/03/05 04:36:51;;;;;;;1.55;1.40;;;;;;;9.28;62.87;99243.22;4472041;31;32850;-82
2024/03/05 04:39:23;;;;;;;4.05;3.70;;;;;;;9.33;63.50;99243.84;4460071;31;32639;-82
2024/03/05 04:41:51;;;;;;;2.30;1.40;;;;;;;9.38;63.09;99236.56;4484431;31;33470;-81
2024/03/05 04:44:19;;;;;;;2.05;1.92;;;;;;;9.40;63.37;99242.62;4483974;31;34042;-81
2024/03/05 04:46:46;;;;;;;0.52;0.52;;;;;;;9.37;63.66;99239.28;4473124;31;33763;-81
2024/03/05 04:49:14;;;;;;;3.95;2.67;;;;;;;9.38;63.49;99239.22;4457571;31;34248;-82
2024/03/05 04:51:42;;;;;;;0.50;0.50;;;;;;;9.40;63.77;99241.75;4477634;31;33105;-83
2024/03/05 04:54:10;;;;;;;0.68;0.68;;;;;;;9.55;63.42;99234.94;4466556;31;34274;-81
2024/03/05 04:56:39;;;;;;;1.40;1.30;;;;;;;9.38;63.83;99247.13;4471443;31;34402;-81
2024/03/05 04:59:07;;;;;;;0.93;0.57;;;;;;;9.49;63.48;99236.06;4472092;31;33657;-81
2024/03/05 05:01:35;;;;;;;2.55;2.00;;;;;;;9.40;63.77;99242.62;4470580;31;33231;-81
2024/03/05 05:04:02;;;;;;;1.83;1.73;;;;;;;9.39;63.71;99240.06;4485277;31;33727;-81
2024/03/05 05:06:32;;;;;;;0.98;0.98;;;;;;;9.46;63.94;99241.50;4486221;31;34132;-81
2024/03/05 05:08:59;;;;;;;2.15;1.70;;;;;;;9.43;63.74;99239.84;4485278;31;35689;-84
2024/03/05 05:11:27;;;;;;;2.25;2.08;;;;;;;9.59;63.32;99244.38;4466292;31;33097;-83
2024/03/05 05:13:55;;;;;;;0.75;0.75;;;;;;;9.53;63.78;99245.53;4486267;31;33885;-84
2024/03/05 05:16:24;;;;;;;2.78;1.12;;;;;;;9.55;63.61;99248.09;4473187;31;33705;-84
2024/03/05 05:18:52;;;;;;;3.37;3.10;;;;;;;9.62;63.41;99247.72;4469281;31;32328;-84
2024/03/05 05:21:20;;;;;;;0.88;0.88;;;;;;;9.63;63.28;99243.28;4471528;31;34561;-84
2024/03/05 05:23:48;;;;;;;10.48;3.45;;;;;;;9.65;63.00;99252.00;4485679;31;33733;-83
2024/03/05 05:26:16;;;;;;;8.55;3.08;;;;;;;9.59;63.41;99247.00;4484365;31;34271;-83
2024/03/05 05:28:43;;;;;;;5.80;3.53;;;;;;;9.56;63.72;99252.44;4458938;31;32400;-83
2024/03/05 05:31:24;;;;;;;2.90;2.00;;;;;;;9.71;63.36;99259.59;4459925;31;33653;-83
2024/03/05 05:33:53;;;;;;;3.03;2.75;;;;;;;9.67;63.52;99260.66;4472087;31;33628;-83
2024/03/05 05:36:21;;;;;;;1.70;1.62;;;;;;;9.78;63.51;99263.66;4485595;31;34186;-83
2024/03/05 05:38:50;;;;;;;3.12;1.30;;;;;;;9.55;64.29;99272.66;4473020;31;32621;-83
2024/03/05 05:41:18;;;;;;;2.97;2.42;;;;;;;9.73;64.04;99260.38;4470188;32;34588;-84
2024/03/05 05:43:46;;;;;;;1.65;1.23;;;;;;;9.81;63.72;99263.50;4469113;31;34142;-83
2024/03/05 05:46:14;;;;;;;2.92;1.20;;;;;;;9.79;64.08;99267.16;4469308;31;33555;-81
2024/03/05 05:48:43;;;;;;;32.08;3.05;;;;;;;9.88;64.05;99269.34;4457960;31;33046;-81
2024/03/05 05:51:10;;;;;;;2.50;2.30;;;;;;;9.94;64.15;99269.03;4474637;31;33544;-81
2024/03/05 05:53:38;;;;;;;0.43;0.43;;;;;;;9.88;64.24;99264.91;4488239;31;32654;-83
2024/03/05 05:56:06;;;;;;;2.05;1.67;;;;;;;9.88;64.58;99269.34;4474460;31;33754;-83
2024/03/05 05:58:35;;;;;;;1.85;1.37;;;;;;;10.29;63.05;99271.69;4480532;31;32340;-83
2024/03/05 06:01:09;;;;;;;3.58;1.45;;;;;;;10.11;63.74;99270.81;4481603;31;33757;-84
2024/03/05 06:03:37;;;;;;;2.95;2.75;;;;;;;10.16;63.84;99268.78;4466018;31;34139;-85
2024/03/05 06:06:06;;;;;;;2.15;1.98;;;;;;;10.14;64.64;99275.94;4479919;31;30979;-84
2024/03/05 06:08:35;;;;;;;2.12;1.55;;;;;;;10.14;64.66;99276.78;4477022;31;33048;-84
2024/03/05 06:11:03;;;;;;;1.65;1.58;;;;;;;10.20;64.63;99265.91;4475999;31;33499;-84
2024/03/05 06:13:30;;;;;;;0.68;0.68;;;;;;;10.20;65.07;99275.63;4487325;31;34054;-83
2024/03/05 06:15:58;;;;;;;1.42;0.77;;;;;;;10.22;65.43;99274.63;4472376;31;33488;-83
2024/03/05 06:18:28;;;;;;;3.55;2.40;;;;;;;10.29;65.47;99269.91;4476548;31;33636;-84
2024/03/05 06:20:56;;;;;;;3.83;3.47;;;;;;;10.50;65.01;99281.16;4477073;31;33170;-83
2024/03/05 06:23:24;;;;;;;1.58;1.50;;;;;;;10.63;64.93;99279.56;4488388;31;32921;-84
2024/03/05 06:25:52;;;;;;;3.60;3.17;;;;;;;10.72;64.76;99283.53;4485526;31;34789;-83
2024/03/05 06:28:20;;;;;;;3.25;2.35;;;;;;;10.71;64.78;99282.69;4462649;31;32230;-84
2024/03/05 06:30:51;;;;;;;1.35;1.25;;;;;;;10.90;64.14;99285.19;4476723;31;32622;-82
2024/03/05 06:33:19;;;;;;;1.67;1.60;;;;;;;11.10;63.74;99280.62;4487976;31;33878;-81
2024/03/05 06:35:48;;;;;;;0.55;0.55;;;;;;;11.19;63.58;99291.56;4475337;31;33013;-83
2024/03/05 06:38:15;;;;;;;2.92;2.00;;;;;;;11.24;63.05;99291.31;4469931;31;33354;-83
2024/03/05 06:40:43;;;;;;;1.90;1.80;;;;;;;11.32;62.71;99293.53;4477007;31;32599;-82
2024/03/05 06:43:20;;;;;;;1.95;1.77;;;;;;;11.33;62.36;99301.38;4475800;31;31954;-82
2024/03/05 06:45:49;;;;;;;4.45;2.87;;;;;;;11.39;61.89;99303.69;4488560;31;33146;-82
2024/03/05 06:48:22;;;;;;;3.70;1.92;;;;;;;11.40;61.67;99300.13;4487544;31;33464;-83
2024/03/05 06:50:57;;;;;;;2.45;1.65;;;;;;;11.65;61.05;99309.34;4471980;31;32374;-82
2024/03/05 06:58:59;;;;;;;2.20;2.05;;;;;;;11.83;60.17;99310.97;4487364;31;33212;-82
2024/03/05 07:01:28;;;;;;;1.10;1.10;;;;;;;11.79;60.02;99309.41;4464836;31;33572;-82
2024/03/05 07:03:56;;;;;;;7.45;2.17;;;;;;;11.44;60.65;99314.87;4461674;31;33399;-82
2024/03/05 07:06:24;;;;;;;2.83;2.62;;;;;;;11.52;60.92;99319.72;4461656;31;33568;-82
2024/03/05 07:08:54;;;;;;;1.65;1.55;;;;;;;11.72;60.05;99323.91;4474693;31;31431;-82
2024/03/05 07:11:25;;;;;;;2.90;2.60;;;;;;;11.79;60.19;99325.28;4487336;31;33611;-82
2024/03/05 07:13:55;;;;;;;1.55;1.42;;;;;;;11.95;59.47;99320.84;4487753;31;33693;-82
2024/03/05 07:16:23;;;;;;;2.83;2.62;;;;;;;11.88;59.59;99323.94;4475801;31;33994;-82
2024/03/05 07:18:55;;;;;;;0.82;0.82;;;;;;;11.76;59.89;99333.38;4483505;31;33783;-81
2024/03/05 07:21:24;;;;;;;0.80;0.80;;;;;;;11.90;59.33;99336.13;4476149;31;31899;-82
2024/03/05 07:23:52;;;;;;;1.20;1.17;;;;;;;11.98;58.51;99328.63;4460366;31;33335;-82
2024/03/05 07:26:23;;;;;;;1.45;1.35;;;;;;;11.98;58.88;99336.56;4474150;31;34084;-81
2024/03/05 07:28:52;;;;;;;3.67;1.65;;;;;;;12.02;58.66;99327.50;4488366;31;33545;-80
2024/03/05 07:31:19;;;;;;;6.65;3.40;;;;;;;11.99;58.72;99335.63;4475125;31;33798;-82
2024/03/05 07:33:48;;;;;;;2.37;2.28;;;;;;;11.96;58.68;99343.75;4474432;31;33903;-82
2024/03/05 07:36:21;;;;;;;3.45;1.62;;;;;;;11.97;59.14;99342.78;4488489;31;34552;-81
2024/03/05 07:38:48;;;;;;;2.12;1.92;;;;;;;11.99;59.00;99338.25;4462209;31;32386;-81
2024/03/05 07:41:20;;;;;;;1.25;1.23;;;;;;;12.17;58.80;99340.81;4467712;31;33836;-81
2024/03/05 07:44:02;;;;;;;2.50;2.30;;;;;;;12.12;58.88;99343.72;4489543;31;33778;-81
2024/03/05 07:46:32;;;;;;;3.55;1.83;;;;;;;12.36;58.35;99343.25;4480402;31;32184;-81
2024/03/05 07:49:00;;;;;;;4.78;2.60;;;;;;;12.30;58.53;99349.75;4471045;31;32122;-81
2024/03/05 07:51:30;;;;;;;3.35;1.48;;;;;;;12.40;58.25;99350.06;4463379;31;33822;-81
2024/03/05 07:54:11;;;;;;;;;;;;;;;12.21;59.08;99350.28;4493281;31;32936;-81
2024/03/05 07:56:39;;;;;;;2.60;1.87;;;;;;;12.26;58.76;99353.50;4478384;31;34503;-81
2024/03/05 07:59:08;;;;;;;1.55;1.35;;;;;;;12.33;58.75;99351.34;4463102;31;32614;-81
2024/03/05 08:01:37;;;;;;;9.43;2.28;;;;;;;12.32;58.59;99355.78;4476291;31;33929;-81
2024/03/05 08:04:05;;;;;;;0.98;0.98;;;;;;;12.38;58.63;99354.59;4488505;31;32042;-81
2024/03/05 08:06:33;;;;;;;4.12;2.12;;;;;;;12.47;58.03;99354.91;4490360;31;33781;-81
2024/03/05 08:09:02;;;;;;;6.57;5.03;;;;;;;12.55;57.47;99359.75;4490835;31;33750;-81
2024/03/05 08:11:30;;;;;;;0.73;0.73;;;;;;;12.68;57.58;99357.25;4489513;31;34729;-81
2024/03/05 08:13:57;;;;;;;2.47;2.33;;;;;;;12.70;57.52;99355.34;4478428;31;33641;-81
2024/03/05 08:16:26;;;;;;;3.42;3.12;;;;;;;12.67;57.92;99351.06;4473592;31;35136;-81
2024/03/05 08:18:55;;;;;;;4.30;2.65;;;;;;;12.88;57.46;99354.25;4474861;31;31204;-81
2024/03/05 08:21:23;;;;;;;1.10;1.08;;;;;;;12.77;57.72;99356.66;4476962;31;33473;-81
2024/03/05 08:23:53;;;;;;;6.28;1.83;;;;;;;12.77;58.07;99359.31;4488093;31;33135;-81
2024/03/05 08:26:22;;;;;;;3.22;2.92;;;;;;;12.77;58.51;99361.97;4477810;31;33801;-81
2024/03/05 08:28:50;;;;;;;2.65;2.45;;;;;;;12.93;58.36;99362.78;4487464;31;33667;-81
2024/03/05 08:31:18;;;;;;;3.28;2.97;;;;;;;13.02;58.32;99359.56;4473481;31;34590;-81
2024/03/05 08:33:47;;;;;;;2.67;1.75;;;;;;;13.07;58.65;99365.44;4491478;31;33675;-81
2024/03/05 08:36:14;;;;;;;5.20;3.33;;;;;;;13.35;58.07;99363.78;4478732;31;33204;-81
2024/03/05 08:38:44;;;;;;;2.60;2.40;;;;;;;13.55;57.59;99366.03;4490805;31;33270;-81
2024/03/05 08:41:12;;;;;;;13.07;2.37;;;;;;;13.48;57.11;99364.72;4479141;31;33175;-81
2024/03/05 08:43:40;;;;;;;2.12;2.03;;;;;;;13.68;57.05;99359.97;4477094;31;34392;-81
2024/03/05 08:46:08;;;;;;;2.90;2.65;;;;;;;13.89;56.50;99363.03;4490742;31;34813;-81
2024/03/05 08:48:36;;;;;;;6.15;1.62;;;;;;;13.99;55.85;99356.19;4476633;31;34392;-81
2024/03/05 08:51:04;;;;;;;1.10;1.05;;;;;;;13.92;56.12;99363.69;4488711;31;34658;-82
2024/03/05 08:53:35;;;;;;;2.80;2.60;;;;;;;14.09;55.45;99360.78;4474915;31;33876;-81
2024/03/05 08:56:03;;;;;;;1.40;1.30;;;;;;;14.44;54.99;99354.13;4466527;31;33890;-82
2024/03/05 08:58:31;;;;;;;7.35;1.50;;;;;;;14.67;54.28;99361.44;4478712;31;32222;-82
2024/03/05 09:00:58;;;;;;;2.58;1.92;;;;;;;14.78;54.38;99361.56;4461964;31;32377;-82
2024/03/05 09:03:26;;;;;;;6.57;4.00;;;;;;;14.90;53.65;99359.84;4492234;31;31638;-82
2024/03/05 09:05:54;;;;;;;1.33;1.23;;;;;;;14.92;53.36;99360.63;4491323;31;34137;-82
2024/03/05 09:08:21;;;;;;;2.05;1.95;;;;;;;14.96;52.67;99366.59;4476999;31;32515;-82
2024/03/05 09:10:49;;;;;;;2.58;1.37;;;;;;;15.00;52.95;99365.38;4446638;31;34833;-82
2024/03/05 09:13:17;;;;;;;3.40;1.98;;;;;;;15.19;52.29;99367.63;4488353;31;33599;-82
2024/03/05 09:15:45;;;;;;;2.67;2.47;;;;;;;15.08;52.54;99363.91;4464298;31;32663;-82
2024/03/05 09:18:13;;;;;;;5.32;3.12;;;;;;;15.58;51.22;99367.50;4487535;31;32243;-82
2024/03/05 09:20:42;;;;;;;21.15;4.28;;;;;;;15.58;51.35;99372.81;4477980;31;31956;-82
2024/03/05 09:23:11;;;;;;;2.22;1.60;;;;;;;15.74;51.61;99364.62;4473982;31;34332;-82
2024/03/05 09:25:41;;;;;;;2.20;1.62;;;;;;;15.57;52.48;99364.94;4486775;31;34084;-82
2024/03/05 09:28:10;;;;;;;2.12;1.87;;;;;;;15.90;51.84;99364.34;4474250;31;33060;-82
2024/03/05 09:30:39;;;;;;;11.25;0.88;;;;;;;16.00;51.06;99365.41;4487197;31;31204;-82
2024/03/05 09:33:10;;;;;;;2.33;2.22;;;;;;;15.82;51.07;99361.41;4487915;31;33446;-82
2024/03/05 09:35:40;;;;;;;5.37;4.32;;;;;;;16.39;49.21;99355.44;4479160;31;32997;-81
2024/03/05 09:38:08;;;;;;;2.80;2.60;;;;;;;16.63;48.79;99355.41;4489683;31;32572;-81
2024/03/05 09:40:38;;;;;;;6.12;4.07;;;;;;;16.58;48.46;99358.41;4478938;31;33261;-82
2024/03/05 09:43:07;;;;;;;6.05;3.67;;;;;;;16.83;47.90;99351.25;4473614;31;33014;-81
2024/03/05 09:45:36;;;;;;;8.45;2.22;;;;;;;17.35;46.31;99349.88;4476051;31;34084;-81
2024/03/05 09:48:05;;;;;;;4.37;3.70;;;;;;;16.95;46.71;99346.78;4477218;31;31379;-81
2024/03/05 09:50:33;;;;;;;2.33;2.12;;;;;;;17.27;46.14;99347.78;4475978;31;33310;-81
2024/03/05 09:53:02;;;;;;;3.35;1.65;;;;;;;17.26;45.82;99351.44;4477319;31;33244;-81
2024/03/05 09:55:29;;;;;;;5.20;2.60;;;;;;;17.67;45.39;99350.81;4464594;31;32327;-81
2024/03/05 09:58:02;;;;;;;1.98;1.87;;;;;;;17.47;46.52;99361.37;4464625;31;33202;-81
2024/03/05 10:00:30;;;;;;;2.65;2.42;;;;;;;17.56;45.41;99358.81;4490789;31;32510;-81
2024/03/05 10:02:58;;;;;;;2.05;1.90;;;;;;;17.58;45.06;99356.91;4486354;31;32752;-81
2024/03/05 10:05:26;;;;;;;3.42;2.70;;;;;;;18.25;44.72;99352.44;4487901;31;33905;-81
2024/03/05 10:07:54;;;;;;;2.75;2.00;;;;;;;18.20;44.38;99363.50;4484590;31;33535;-81
2024/03/05 10:10:22;;;;;;;5.30;2.35;;;;;;;18.31;43.40;99360.78;4463524;31;32836;-81
2024/03/05 10:12:50;;;;;;;7.00;3.90;;;;;;;18.44;43.46;99355.28;4475920;31;33695;-81
2024/03/05 10:15:24;;;;;;;3.78;2.35;;;;;;;18.14;43.84;99364.84;4486347;31;32120;-82
2024/03/05 10:17:55;;;;;;;3.75;2.55;;;;;;;17.69;45.47;99363.19;4489103;31;33320;-82
2024/03/05 10:20:37;;;;;;;2.67;1.87;;;;;;;17.81;45.40;99367.59;4466283;31;31641;-82
2024/03/05 10:23:07;;;;;;;;;;;;;;;17.85;44.82;99364.56;4478219;31;34238;-82
2024/03/05 10:25:36;;;;;;;3.20;1.92;;;;;;;18.47;43.21;99360.37;4478774;31;33280;-82
2024/03/05 10:28:06;;;;;;;2.72;2.45;;;;;;;18.16;43.69;99367.41;4474640;31;31322;-82
2024/03/05 10:30:36;;;;;;;1.80;1.60;;;;;;;18.20;43.76;99366.16;4488870;31;33909;-82
2024/03/05 10:33:07;;;;;;;2.67;2.42;;;;;;;18.62;42.72;99363.59;4476856;31;33727;-82
2024/03/05 10:35:37;;;;;;;1.35;1.25;;;;;;;18.86;41.94;99366.06;4475175;31;33943;-82
2024/03/05 10:38:09;;;;;;;6.68;2.67;;;;;;;18.98;41.87;99365.00;4474767;31;32575;-82
2024/03/05 10:40:43;;;;;;;3.10;2.53;;;;;;;19.02;41.25;99362.91;4463295;31;33525;-82
2024/03/05 10:43:18;;;;;;;2.53;2.20;;;;;;;19.21;41.38;99364.84;4465751;31;33215;-82
2024/03/05 10:45:47;;;;;;;3.12;2.30;;;;;;;19.19;41.76;99365.84;4474361;31;33278;-82
2024/03/05 10:48:18;;;;;;;4.93;2.53;;;;;;;19.15;41.28;99364.41;4475429;31;32803;-82
2024/03/05 10:50:48;;;;;;;5.68;2.62;;;;;;;19.32;40.31;99359.41;4484566;31;33766;-82
2024/03/05 10:53:17;;;;;;;3.42;2.12;;;;;;;19.34;40.68;99360.13;4487168;31;33939;-82
2024/03/05 10:55:47;;;;;;;2.97;2.78;;;;;;;18.83;41.71;99350.25;4476844;31;32251;-82
2024/03/05 10:58:36;;;;;;;2.05;1.87;;;;;;;19.57;39.81;99371.53;4475286;31;34274;-82
2024/03/05 11:01:08;;;;;;;6.97;3.40;;;;;;;19.36;39.68;99369.72;4489545;31;31600;-82
2024/03/05 11:03:38;;;;;;;;;;;;;;;19.57;39.28;99358.97;4477134;31;33902;-82
2024/03/05 11:06:06;;;;;;;2.45;1.48;;;;;;;19.54;39.69;99361.91;4462873;31;33715;-82
2024/03/05 11:08:36;;;;;;;1.95;1.65;;;;;;;19.60;38.65;99348.00;4475237;31;33105;-82
2024/03/05 11:11:10;;;;;;;4.82;2.37;;;;;;;19.75;38.09;99358.34;4470577;31;32535;-81
2024/03/05 11:13:39;;;;;;;2.60;2.40;;;;;;;19.27;38.50;99350.94;4463687;31;35416;-82
2024/03/05 11:16:08;;;;;;;2.08;1.95;;;;;;;19.04;39.37;99356.47;4474135;31;32157;-82
2024/03/05 11:18:37;;;;;;;2.50;1.35;;;;;;;19.60;39.25;99356.03;4489910;31;33596;-81
2024/03/05 11:21:07;;;;;;;3.05;1.95;;;;;;;20.36;36.69;99352.81;4475732;31;32421;-83
2024/03/05 11:23:41;;;;;;;1.62;1.52;;;;;;;20.37;35.72;99355.38;4489872;31;34370;-83
2024/03/05 11:26:20;;;;;;;5.35;2.70;;;;;;;19.96;37.11;99359.13;4479275;31;33347;-83
2024/03/05 11:28:48;;;;;;;3.20;2.10;;;;;;;19.27;38.73;99358.97;4464445;31;32691;-82
2024/03/05 11:31:18;;;;;;;3.80;2.12;;;;;;;19.74;38.52;99356.66;4465977;31;33757;-82
2024/03/05 11:34:02;;;;;;;2.00;1.45;;;;;;;19.13;39.61;99358.34;4475150;31;32751;-82
2024/03/05 11:36:36;;;;;;;6.60;3.12;;;;;;;20.08;38.21;99355.34;4465217;31;32632;-82
2024/03/05 11:39:15;;;;;;;1.85;1.45;;;;;;;19.40;39.57;99359.59;4466534;31;32458;-81
2024/03/05 11:41:44;;;;;;;2.40;1.60;;;;;;;19.97;38.47;99352.78;4466922;31;35458;-82
2024/03/05 11:44:14;;;;;;;4.53;2.42;;;;;;;19.79;39.05;99362.44;4486598;31;35414;-81
2024/03/05 11:46:43;;;;;;;2.58;2.17;;;;;;;20.26;37.92;99354.66;4463394;31;34254;-81
2024/03/05 11:49:15;;;;;;;9.27;4.00;;;;;;;19.86;39.55;99360.94;4477344;31;103131;-81
2024/03/05 11:51:44;;;;;;;3.95;2.08;;;;;;;20.44;37.68;99350.28;4463608;31;32924;-81
2024/03/05 11:54:14;;;;;;;2.12;1.92;;;;;;;20.31;37.56;99347.03;4475408;31;34023;-81